sensor_id;sensor_type;location;lat;lon;timestamp;temperature;humidity
83120;SHT31;73001;51.784;4.660;2024-03-06T00:01:32;9.18;79.57
83120;SHT31;73001;51.784;4.660;2024-03-06T00:03:59;9.21;79.61
83120;SHT31;73001;51.784;4.660;2024-03-06T00:06:24;9.21;79.57
83120;SHT31;73001;51.784;4.660;2024-03-06T00:08:50;9.21;79.27
83120;SHT31;73001;51.784;4.660;2024-03-06T00:11:16;9.16;79.23
83120;SHT31;73001;51.784;4.660;2024-03-06T00:13:42;9.16;79.26
83120;SHT31;73001;51.784;4.660;2024-03-06T00:16:08;9.15;79.23
83120;SHT31;73001;51.784;4.660;2024-03-06T00:18:34;9.12;79.16
83120;SHT31;73001;51.784;4.660;2024-03-06T00:20:59;9.12;79.05
83120;SHT31;73001;51.784;4.660;2024-03-06T00:23:25;9.12;79.11
83120;SHT31;73001;51.784;4.660;2024-03-06T00:25:51;9.15;79.21
83120;SHT31;73001;51.784;4.660;2024-03-06T00:28:16;9.12;79.30
83120;SHT31;73001;51.784;4.660;2024-03-06T00:30:42;9.08;79.69
83120;SHT31;73001;51.784;4.660;2024-03-06T00:33:07;9.05;79.69
83120;SHT31;73001;51.784;4.660;2024-03-06T00:35:33;9.07;79.62
83120;SHT31;73001;51.784;4.660;2024-03-06T00:37:58;9.05;79.28
83120;SHT31;73001;51.784;4.660;2024-03-06T00:40:28;9.01;79.47
83120;SHT31;73001;51.784;4.660;2024-03-06T00:42:56;8.95;79.37
83120;SHT31;73001;51.784;4.660;2024-03-06T00:45:22;8.92;79.32
83120;SHT31;73001;51.784;4.660;2024-03-06T00:47:48;8.91;79.25
83120;SHT31;73001;51.784;4.660;2024-03-06T00:50:13;8.84;78.99
83120;SHT31;73001;51.784;4.660;2024-03-06T00:52:39;8.78;79.00
83120;SHT31;73001;51.784;4.660;2024-03-06T00:55:05;8.80;78.83
83120;SHT31;73001;51.784;4.660;2024-03-06T00:57:31;8.78;78.95
83120;SHT31;73001;51.784;4.660;2024-03-06T00:59:56;8.73;79.19
83120;SHT31;73001;51.784;4.660;2024-03-06T01:02:21;8.70;79.02
83120;SHT31;73001;51.784;4.660;2024-03-06T01:04:47;8.64;78.74
83120;SHT31;73001;51.784;4.660;2024-03-06T01:07:12;8.61;78.57
83120;SHT31;73001;51.784;4.660;2024-03-06T01:09:38;8.54;78.34
83120;SHT31;73001;51.784;4.660;2024-03-06T01:12:04;8.50;78.45
83120;SHT31;73001;51.784;4.660;2024-03-06T01:14:30;8.46;78.46
83120;SHT31;73001;51.784;4.660;2024-03-06T01:16:56;8.40;78.49
83120;SHT31;73001;51.784;4.660;2024-03-06T01:19:21;8.35;78.67
83120;SHT31;73001;51.784;4.660;2024-03-06T01:21:47;8.28;78.63
83120;SHT31;73001;51.784;4.660;2024-03-06T01:24:14;8.22;78.39
83120;SHT31;73001;51.784;4.660;2024-03-06T01:26:39;8.16;78.15
83120;SHT31;73001;51.784;4.660;2024-03-06T01:29:06;8.09;77.94
83120;SHT31;73001;51.784;4.660;2024-03-06T01:31:31;7.99;77.77
83120;SHT31;73001;51.784;4.660;2024-03-06T01:33:57;7.96;77.84
83120;SHT31;73001;51.784;4.660;2024-03-06T01:36:22;7.94;78.19
83120;SHT31;73001;51.784;4.660;2024-03-06T01:38:48;7.91;78.29
83120;SHT31;73001;51.784;4.660;2024-03-06T01:41:14;7.82;78.28
83120;SHT31;73001;51.784;4.660;2024-03-06T01:43:40;7.75;78.35
83120;SHT31;73001;51.784;4.660;2024-03-06T01:46:06;7.70;78.11
83120;SHT31;73001;51.784;4.660;2024-03-06T01:48:33;7.61;77.83
83120;SHT31;73001;51.784;4.660;2024-03-06T01:51:02;7.57;77.58
83120;SHT31;73001;51.784;4.660;2024-03-06T01:53:29;7.50;77.20
83120;SHT31;73001;51.784;4.660;2024-03-06T01:55:56;7.47;78.37
83120;SHT31;73001;51.784;4.660;2024-03-06T01:58:23;7.40;79.03
83120;SHT31;73001;51.784;4.660;2024-03-06T02:00:50;7.40;79.25
83120;SHT31;73001;51.784;4.660;2024-03-06T02:03:17;7.31;79.13
83120;SHT31;73001;51.784;4.660;2024-03-06T02:05:43;7.24;79.38
83120;SHT31;73001;51.784;4.660;2024-03-06T02:08:08;7.20;79.27
83120;SHT31;73001;51.784;4.660;2024-03-06T02:10:34;7.19;79.20
83120;SHT31;73001;51.784;4.660;2024-03-06T02:13:00;7.13;78.96
83120;SHT31;73001;51.784;4.660;2024-03-06T02:15:25;7.10;78.55
83120;SHT31;73001;51.784;4.660;2024-03-06T02:17:51;7.02;78.34
83120;SHT31;73001;51.784;4.660;2024-03-06T02:20:25;7.02;78.71
83120;SHT31;73001;51.784;4.660;2024-03-06T02:22:51;7.00;78.89
83120;SHT31;73001;51.784;4.660;2024-03-06T02:25:17;7.02;79.36
83120;SHT31;73001;51.784;4.660;2024-03-06T02:27:44;7.00;79.26
83120;SHT31;73001;51.784;4.660;2024-03-06T02:30:10;6.99;78.99
83120;SHT31;73001;51.784;4.660;2024-03-06T02:32:36;6.92;78.79
83120;SHT31;73001;51.784;4.660;2024-03-06T02:35:02;6.95;78.64
83120;SHT31;73001;51.784;4.660;2024-03-06T02:37:28;6.92;78.66
83120;SHT31;73001;51.784;4.660;2024-03-06T02:39:54;6.90;78.76
83120;SHT31;73001;51.784;4.660;2024-03-06T02:42:20;6.89;78.91
83120;SHT31;73001;51.784;4.660;2024-03-06T02:44:45;6.88;78.83
83120;SHT31;73001;51.784;4.660;2024-03-06T02:47:11;6.79;78.60
83120;SHT31;73001;51.784;4.660;2024-03-06T02:49:36;6.76;79.02
83120;SHT31;73001;51.784;4.660;2024-03-06T02:52:02;6.73;79.53
83120;SHT31;73001;51.784;4.660;2024-03-06T02:54:27;6.69;80.08
83120;SHT31;73001;51.784;4.660;2024-03-06T02:56:53;6.62;80.26
83120;SHT31;73001;51.784;4.660;2024-03-06T02:59:18;6.62;80.55
83120;SHT31;73001;51.784;4.660;2024-03-06T03:01:44;6.62;80.51
83120;SHT31;73001;51.784;4.660;2024-03-06T03:04:10;6.64;80.34
83120;SHT31;73001;51.784;4.660;2024-03-06T03:06:36;6.64;80.06
83120;SHT31;73001;51.784;4.660;2024-03-06T03:09:01;6.67;79.88
83120;SHT31;73001;51.784;4.660;2024-03-06T03:11:29;6.65;79.71
83120;SHT31;73001;51.784;4.660;2024-03-06T03:13:55;6.62;79.40
83120;SHT31;73001;51.784;4.660;2024-03-06T03:16:21;6.56;79.18
83120;SHT31;73001;51.784;4.660;2024-03-06T03:18:47;6.51;79.18
83120;SHT31;73001;51.784;4.660;2024-03-06T03:21:13;6.49;79.28
83120;SHT31;73001;51.784;4.660;2024-03-06T03:23:39;6.46;79.47
83120;SHT31;73001;51.784;4.660;2024-03-06T03:26:06;6.51;79.99
83120;SHT31;73001;51.784;4.660;2024-03-06T03:28:32;6.51;79.95
83120;SHT31;73001;51.784;4.660;2024-03-06T03:30:58;6.53;79.87
83120;SHT31;73001;51.784;4.660;2024-03-06T03:33:23;6.51;79.75
83120;SHT31;73001;51.784;4.660;2024-03-06T03:35:49;6.51;79.69
83120;SHT31;73001;51.784;4.660;2024-03-06T03:38:15;6.49;79.55
83120;SHT31;73001;51.784;4.660;2024-03-06T03:40:40;6.51;79.42
83120;SHT31;73001;51.784;4.660;2024-03-06T03:43:06;6.46;79.93
83120;SHT31;73001;51.784;4.660;2024-03-06T03:45:32;6.45;80.10
83120;SHT31;73001;51.784;4.660;2024-03-06T03:48:00;6.45;80.11
83120;SHT31;73001;51.784;4.660;2024-03-06T03:50:28;6.46;79.93
83120;SHT31;73001;51.784;4.660;2024-03-06T03:52:55;6.42;79.84
83120;SHT31;73001;51.784;4.660;2024-03-06T03:55:20;6.42;80.03
83120;SHT31;73001;51.784;4.660;2024-03-06T03:57:46;6.40;80.39
83120;SHT31;73001;51.784;4.660;2024-03-06T04:00:13;6.38;80.62
83120;SHT31;73001;51.784;4.660;2024-03-06T04:02:38;6.42;80.66
83120;SHT31;73001;51.784;4.660;2024-03-06T04:05:04;6.46;80.91
83120;SHT31;73001;51.784;4.660;2024-03-06T04:07:30;6.51;81.00
83120;SHT31;73001;51.784;4.660;2024-03-06T04:09:55;6.53;80.95
83120;SHT31;73001;51.784;4.660;2024-03-06T04:12:21;6.53;81.11
83120;SHT31;73001;51.784;4.660;2024-03-06T04:14:46;6.56;81.07
83120;SHT31;73001;51.784;4.660;2024-03-06T04:17:12;6.59;80.50
83120;SHT31;73001;51.784;4.660;2024-03-06T04:19:37;6.56;80.15
83120;SHT31;73001;51.784;4.660;2024-03-06T04:22:03;6.55;79.87
83120;SHT31;73001;51.784;4.660;2024-03-06T04:24:28;6.49;79.61
83120;SHT31;73001;51.784;4.660;2024-03-06T04:26:54;6.49;79.61
83120;SHT31;73001;51.784;4.660;2024-03-06T04:29:22;6.46;79.56
83120;SHT31;73001;51.784;4.660;2024-03-06T04:31:47;6.48;79.41
83120;SHT31;73001;51.784;4.660;2024-03-06T04:34:13;6.45;79.34
83120;SHT31;73001;51.784;4.660;2024-03-06T04:36:38;6.44;79.17
83120;SHT31;73001;51.784;4.660;2024-03-06T04:39:03;6.42;78.93
83120;SHT31;73001;51.784;4.660;2024-03-06T04:41:33;6.38;78.90
83120;SHT31;73001;51.784;4.660;2024-03-06T04:43:59;6.31;78.68
83120;SHT31;73001;51.784;4.660;2024-03-06T04:46:26;6.31;78.93
83120;SHT31;73001;51.784;4.660;2024-03-06T04:48:52;6.34;79.19
83120;SHT31;73001;51.784;4.660;2024-03-06T04:51:17;6.30;79.06
83120;SHT31;73001;51.784;4.660;2024-03-06T04:53:45;6.30;78.97
83120;SHT31;73001;51.784;4.660;2024-03-06T04:56:11;6.21;78.95
83120;SHT31;73001;51.784;4.660;2024-03-06T04:58:36;6.21;78.88
83120;SHT31;73001;51.784;4.660;2024-03-06T05:01:02;6.22;78.79
83120;SHT31;73001;51.784;4.660;2024-03-06T05:03:29;6.16;78.90
83120;SHT31;73001;51.784;4.660;2024-03-06T05:05:54;6.14;78.92
83120;SHT31;73001;51.784;4.660;2024-03-06T05:08:20;6.13;78.95
83120;SHT31;73001;51.784;4.660;2024-03-06T05:10:46;6.11;79.12
83120;SHT31;73001;51.784;4.660;2024-03-06T05:13:11;6.11;79.33
83120;SHT31;73001;51.784;4.660;2024-03-06T05:15:37;6.11;79.56
83120;SHT31;73001;51.784;4.660;2024-03-06T05:18:05;6.17;79.61
83120;SHT31;73001;51.784;4.660;2024-03-06T05:20:30;6.13;79.56
83120;SHT31;73001;51.784;4.660;2024-03-06T05:22:57;6.11;79.49
83120;SHT31;73001;51.784;4.660;2024-03-06T05:25:22;6.11;79.47
83120;SHT31;73001;51.784;4.660;2024-03-06T05:27:48;6.10;79.48
83120;SHT31;73001;51.784;4.660;2024-03-06T05:30:14;6.13;79.23
83120;SHT31;73001;51.784;4.660;2024-03-06T05:32:40;6.08;78.99
83120;SHT31;73001;51.784;4.660;2024-03-06T05:35:07;6.06;79.08
83120;SHT31;73001;51.784;4.660;2024-03-06T05:37:35;6.06;79.01
83120;SHT31;73001;51.784;4.660;2024-03-06T05:40:01;6.07;79.11
83120;SHT31;73001;51.784;4.660;2024-03-06T05:42:30;6.04;79.54
83120;SHT31;73001;51.784;4.660;2024-03-06T05:44:59;5.99;79.55
83120;SHT31;73001;51.784;4.660;2024-03-06T05:47:33;5.96;79.66
83120;SHT31;73001;51.784;4.660;2024-03-06T05:49:59;5.93;79.81
83120;SHT31;73001;51.784;4.660;2024-03-06T05:52:25;5.93;80.15
83120;SHT31;73001;51.784;4.660;2024-03-06T05:54:50;5.90;80.15
83120;SHT31;73001;51.784;4.660;2024-03-06T05:57:16;5.91;79.95
83120;SHT31;73001;51.784;4.660;2024-03-06T05:59:41;5.85;79.65
83120;SHT31;73001;51.784;4.660;2024-03-06T06:02:07;5.85;79.60
83120;SHT31;73001;51.784;4.660;2024-03-06T06:04:32;5.83;79.62
83120;SHT31;73001;51.784;4.660;2024-03-06T06:06:58;5.80;79.74
83120;SHT31;73001;51.784;4.660;2024-03-06T06:09:24;5.80;79.91
83120;SHT31;73001;51.784;4.660;2024-03-06T06:11:49;5.83;79.64
83120;SHT31;73001;51.784;4.660;2024-03-06T06:14:15;5.89;79.48
83120;SHT31;73001;51.784;4.660;2024-03-06T06:16:42;5.86;79.29
83120;SHT31;73001;51.784;4.660;2024-03-06T06:19:07;5.85;79.17
83120;SHT31;73001;51.784;4.660;2024-03-06T06:21:33;5.79;79.02
83120;SHT31;73001;51.784;4.660;2024-03-06T06:24:01;5.76;79.02
83120;SHT31;73001;51.784;4.660;2024-03-06T06:26:26;5.74;79.09
83120;SHT31;73001;51.784;4.660;2024-03-06T06:28:52;5.76;79.08
83120;SHT31;73001;51.784;4.660;2024-03-06T06:31:17;5.73;78.95
83120;SHT31;73001;51.784;4.660;2024-03-06T06:33:43;5.71;79.06
83120;SHT31;73001;51.784;4.660;2024-03-06T06:36:10;5.77;79.43
83120;SHT31;73001;51.784;4.660;2024-03-06T06:38:37;5.79;79.28
83120;SHT31;73001;51.784;4.660;2024-03-06T06:41:02;5.74;79.37
83120;SHT31;73001;51.784;4.660;2024-03-06T06:43:28;5.81;79.56
83120;SHT31;73001;51.784;4.660;2024-03-06T06:45:53;5.85;80.02
83120;SHT31;73001;51.784;4.660;2024-03-06T06:48:21;5.83;80.26
83120;SHT31;73001;51.784;4.660;2024-03-06T06:50:47;5.85;80.54
83120;SHT31;73001;51.784;4.660;2024-03-06T06:53:13;5.89;80.49
83120;SHT31;73001;51.784;4.660;2024-03-06T06:55:39;5.94;80.36
83120;SHT31;73001;51.784;4.660;2024-03-06T06:58:04;5.97;80.22
83120;SHT31;73001;51.784;4.660;2024-03-06T07:00:30;6.04;80.25
83120;SHT31;73001;51.784;4.660;2024-03-06T07:02:55;6.06;80.29
83120;SHT31;73001;51.784;4.660;2024-03-06T07:05:24;6.16;80.52
83120;SHT31;73001;51.784;4.660;2024-03-06T07:07:49;6.21;80.65
83120;SHT31;73001;51.784;4.660;2024-03-06T07:10:15;6.30;80.70
83120;SHT31;73001;51.784;4.660;2024-03-06T07:12:40;6.40;80.62
83120;SHT31;73001;51.784;4.660;2024-03-06T07:15:06;6.49;80.93
83120;SHT31;73001;51.784;4.660;2024-03-06T07:17:32;6.58;81.21
83120;SHT31;73001;51.784;4.660;2024-03-06T07:19:57;6.67;81.49
83120;SHT31;73001;51.784;4.660;2024-03-06T07:22:23;6.81;81.60
83120;SHT31;73001;51.784;4.660;2024-03-06T07:24:48;6.92;81.80
83120;SHT31;73001;51.784;4.660;2024-03-06T07:27:14;7.03;81.65
83120;SHT31;73001;51.784;4.660;2024-03-06T07:29:39;7.14;81.96
83120;SHT31;73001;51.784;4.660;2024-03-06T07:32:05;7.27;82.12
83120;SHT31;73001;51.784;4.660;2024-03-06T07:34:31;7.41;82.10
83120;SHT31;73001;51.784;4.660;2024-03-06T07:36:58;7.51;82.15
83120;SHT31;73001;51.784;4.660;2024-03-06T07:39:26;7.61;82.28
83120;SHT31;73001;51.784;4.660;2024-03-06T07:41:53;7.74;82.36
83120;SHT31;73001;51.784;4.660;2024-03-06T07:44:20;7.84;82.14
83120;SHT31;73001;51.784;4.660;2024-03-06T07:46:45;7.94;82.00
83120;SHT31;73001;51.784;4.660;2024-03-06T07:49:11;8.02;81.64
83120;SHT31;73001;51.784;4.660;2024-03-06T07:51:36;8.09;81.59
83120;SHT31;73001;51.784;4.660;2024-03-06T07:54:02;8.21;81.19
83120;SHT31;73001;51.784;4.660;2024-03-06T07:56:29;8.26;80.84
83120;SHT31;73001;51.784;4.660;2024-03-06T07:58:55;8.32;81.17
83120;SHT31;73001;51.784;4.660;2024-03-06T08:01:21;8.50;81.10
83120;SHT31;73001;51.784;4.660;2024-03-06T08:03:47;8.68;80.44
83120;SHT31;73001;51.784;4.660;2024-03-06T08:06:12;8.89;80.68
83120;SHT31;73001;51.784;4.660;2024-03-06T08:08:41;9.21;79.22
83120;SHT31;73001;51.784;4.660;2024-03-06T08:11:10;9.56;78.42
83120;SHT31;73001;51.784;4.660;2024-03-06T08:13:36;10.10;77.42
83120;SHT31;73001;51.784;4.660;2024-03-06T08:16:02;10.89;75.14
83120;SHT31;73001;51.784;4.660;2024-03-06T08:18:27;11.56;71.62
83120;SHT31;73001;51.784;4.660;2024-03-06T08:20:53;11.99;70.12
83120;SHT31;73001;51.784;4.660;2024-03-06T08:23:19;12.55;68.73
83120;SHT31;73001;51.784;4.660;2024-03-06T08:25:45;13.15;66.77
83120;SHT31;73001;51.784;4.660;2024-03-06T08:28:10;13.68;64.44
83120;SHT31;73001;51.784;4.660;2024-03-06T08:30:36;14.13;63.33
83120;SHT31;73001;51.784;4.660;2024-03-06T08:33:01;14.54;61.62
83120;SHT31;73001;51.784;4.660;2024-03-06T08:35:27;15.09;60.20
83120;SHT31;73001;51.784;4.660;2024-03-06T08:37:52;15.63;59.30
83120;SHT31;73001;51.784;4.660;2024-03-06T08:40:18;16.21;58.29
83120;SHT31;73001;51.784;4.660;2024-03-06T08:42:44;16.75;56.10
83120;SHT31;73001;51.784;4.660;2024-03-06T08:45:10;17.27;55.10
83120;SHT31;73001;51.784;4.660;2024-03-06T08:47:36;17.74;54.15
83120;SHT31;73001;51.784;4.660;2024-03-06T08:50:02;18.38;52.57
83120;SHT31;73001;51.784;4.660;2024-03-06T08:52:29;18.73;50.78
83120;SHT31;73001;51.784;4.660;2024-03-06T08:54:56;18.94;50.70
83120;SHT31;73001;51.784;4.660;2024-03-06T08:57:21;19.31;50.13
83120;SHT31;73001;51.784;4.660;2024-03-06T08:59:47;19.72;49.06
83120;SHT31;73001;51.784;4.660;2024-03-06T09:02:17;20.22;48.21
83120;SHT31;73001;51.784;4.660;2024-03-06T09:04:45;20.29;46.71
83120;SHT31;73001;51.784;4.660;2024-03-06T09:07:11;20.22;47.71
83120;SHT31;73001;51.784;4.660;2024-03-06T09:09:37;20.57;47.46
83120;SHT31;73001;51.784;4.660;2024-03-06T09:12:06;20.91;46.52
83120;SHT31;73001;51.784;4.660;2024-03-06T09:14:35;21.19;46.04
83120;SHT31;73001;51.784;4.660;2024-03-06T09:17:00;21.35;46.23
83120;SHT31;73001;51.784;4.660;2024-03-06T09:19:26;21.80;45.39
83120;SHT31;73001;51.784;4.660;2024-03-06T09:21:52;22.18;44.65
83120;SHT31;73001;51.784;4.660;2024-03-06T09:24:17;22.27;44.19
83120;SHT31;73001;51.784;4.660;2024-03-06T09:26:45;22.28;43.14
83120;SHT31;73001;51.784;4.660;2024-03-06T09:29:12;22.88;43.03
83120;SHT31;73001;51.784;4.660;2024-03-06T09:31:37;23.70;41.93
83120;SHT31;73001;51.784;4.660;2024-03-06T09:34:03;24.42;38.90
83120;SHT31;73001;51.784;4.660;2024-03-06T09:36:28;24.84;38.60
83120;SHT31;73001;51.784;4.660;2024-03-06T09:38:54;25.20;39.13
83120;SHT31;73001;51.784;4.660;2024-03-06T09:41:21;25.89;37.21
83120;SHT31;73001;51.784;4.660;2024-03-06T09:43:47;26.41;36.93
83120;SHT31;73001;51.784;4.660;2024-03-06T09:46:14;26.74;36.19
83120;SHT31;73001;51.784;4.660;2024-03-06T09:48:47;27.19;35.31
83120;SHT31;73001;51.784;4.660;2024-03-06T09:51:13;27.60;34.58
83120;SHT31;73001;51.784;4.660;2024-03-06T09:53:42;27.94;34.59
83120;SHT31;73001;51.784;4.660;2024-03-06T09:56:10;27.59;34.25
83120;SHT31;73001;51.784;4.660;2024-03-06T09:58:36;27.80;35.22
83120;SHT31;73001;51.784;4.660;2024-03-06T10:01:02;27.31;35.08
83120;SHT31;73001;51.784;4.660;2024-03-06T10:03:29;27.74;34.75
83120;SHT31;73001;51.784;4.660;2024-03-06T10:05:55;28.21;34.41
83120;SHT31;73001;51.784;4.660;2024-03-06T10:08:22;28.55;34.15
83120;SHT31;73001;51.784;4.660;2024-03-06T10:10:49;28.85;33.91
83120;SHT31;73001;51.784;4.660;2024-03-06T10:13:18;29.00;32.68
83120;SHT31;73001;51.784;4.660;2024-03-06T10:15:57;29.27;31.64
83120;SHT31;73001;51.784;4.660;2024-03-06T10:18:29;29.16;31.53
83120;SHT31;73001;51.784;4.660;2024-03-06T10:20:56;29.13;32.55
83120;SHT31;73001;51.784;4.660;2024-03-06T10:23:22;28.98;32.95
83120;SHT31;73001;51.784;4.660;2024-03-06T10:25:49;29.26;33.11
83120;SHT31;73001;51.784;4.660;2024-03-06T10:28:19;28.14;34.02
83120;SHT31;73001;51.784;4.660;2024-03-06T10:30:45;27.24;34.14
83120;SHT31;73001;51.784;4.660;2024-03-06T10:33:15;26.63;36.19
83120;SHT31;73001;51.784;4.660;2024-03-06T10:35:42;27.45;35.77
83120;SHT31;73001;51.784;4.660;2024-03-06T10:38:09;28.13;34.59
83120;SHT31;73001;51.784;4.660;2024-03-06T10:40:43;28.76;34.12
83120;SHT31;73001;51.784;4.660;2024-03-06T10:43:10;28.61;33.08
83120;SHT31;73001;51.784;4.660;2024-03-06T10:45:48;28.62;34.37
83120;SHT31;73001;51.784;4.660;2024-03-06T10:48:16;28.91;32.21
83120;SHT31;73001;51.784;4.660;2024-03-06T10:50:44;28.62;33.22
83120;SHT31;73001;51.784;4.660;2024-03-06T10:53:12;28.82;34.04
83120;SHT31;73001;51.784;4.660;2024-03-06T10:55:38;29.42;32.42
83120;SHT31;73001;51.784;4.660;2024-03-06T10:58:06;28.78;32.80
83120;SHT31;73001;51.784;4.660;2024-03-06T11:00:41;26.94;34.26
83120;SHT31;73001;51.784;4.660;2024-03-06T11:03:09;27.73;34.53
83120;SHT31;73001;51.784;4.660;2024-03-06T11:05:44;26.58;35.76
83120;SHT31;73001;51.784;4.660;2024-03-06T11:08:13;26.19;36.77
83120;SHT31;73001;51.784;4.660;2024-03-06T11:10:41;25.59;36.80
83120;SHT31;73001;51.784;4.660;2024-03-06T11:13:23;26.09;36.55
83120;SHT31;73001;51.784;4.660;2024-03-06T11:15:52;25.16;37.06
83120;SHT31;73001;51.784;4.660;2024-03-06T11:20:59;24.48;38.56
83120;SHT31;73001;51.784;4.660;2024-03-06T11:23:24;24.82;36.57
83120;SHT31;73001;51.784;4.660;2024-03-06T11:28:23;26.10;37.98
83120;SHT31;73001;51.784;4.660;2024-03-06T11:30:59;27.09;34.02
83120;SHT31;73001;51.784;4.660;2024-03-06T11:33:45;27.93;33.96
83120;SHT31;73001;51.784;4.660;2024-03-06T11:36:19;28.41;32.20
83120;SHT31;73001;51.784;4.660;2024-03-06T11:39:04;28.55;32.19
83120;SHT31;73001;51.784;4.660;2024-03-06T11:41:46;28.79;32.67
83120;SHT31;73001;51.784;4.660;2024-03-06T11:44:19;29.32;32.06
83120;SHT31;73001;51.784;4.660;2024-03-06T11:49:24;29.33;32.08
83120;SHT31;73001;51.784;4.660;2024-03-06T11:52:03;28.48;31.78
83120;SHT31;73001;51.784;4.660;2024-03-06T11:54:31;27.12;32.85
83120;SHT31;73001;51.784;4.660;2024-03-06T11:56:59;25.64;36.32
83120;SHT31;73001;51.784;4.660;2024-03-06T11:59:26;24.45;38.25
83120;SHT31;73001;51.784;4.660;2024-03-06T12:01:57;23.37;40.09
83120;SHT31;73001;51.784;4.660;2024-03-06T12:04:24;22.54;40.63
83120;SHT31;73001;51.784;4.660;2024-03-06T12:06:50;21.38;43.21
83120;SHT31;73001;51.784;4.660;2024-03-06T12:09:17;20.70;43.27
83120;SHT31;73001;51.784;4.660;2024-03-06T12:11:43;19.94;44.83
83120;SHT31;73001;51.784;4.660;2024-03-06T12:14:16;19.49;46.10
83120;SHT31;73001;51.784;4.660;2024-03-06T12:16:43;19.08;47.24
83120;SHT31;73001;51.784;4.660;2024-03-06T12:19:09;18.90;47.31
83120;SHT31;73001;51.784;4.660;2024-03-06T12:21:35;18.69;47.00
83120;SHT31;73001;51.784;4.660;2024-03-06T12:24:05;18.32;45.65
83120;SHT31;73001;51.784;4.660;2024-03-06T12:26:30;17.68;47.97
83120;SHT31;73001;51.784;4.660;2024-03-06T12:29:12;17.50;50.69
83120;SHT31;73001;51.784;4.660;2024-03-06T12:31:38;17.60;51.04
83120;SHT31;73001;51.784;4.660;2024-03-06T12:34:06;17.74;51.20
83120;SHT31;73001;51.784;4.660;2024-03-06T12:36:33;17.82;50.59
83120;SHT31;73001;51.784;4.660;2024-03-06T12:39:00;17.73;49.41
83120;SHT31;73001;51.784;4.660;2024-03-06T12:41:26;17.33;50.48
83120;SHT31;73001;51.784;4.660;2024-03-06T12:43:52;17.22;50.92
83120;SHT31;73001;51.784;4.660;2024-03-06T12:46:18;17.03;51.28
83120;SHT31;73001;51.784;4.660;2024-03-06T12:48:44;17.05;51.01
83120;SHT31;73001;51.784;4.660;2024-03-06T12:51:10;16.99;50.99
83120;SHT31;73001;51.784;4.660;2024-03-06T12:53:35;17.06;51.31
83120;SHT31;73001;51.784;4.660;2024-03-06T12:56:01;17.03;50.10
83120;SHT31;73001;51.784;4.660;2024-03-06T12:58:28;16.95;50.72
83120;SHT31;73001;51.784;4.660;2024-03-06T13:00:53;16.89;50.73
83120;SHT31;73001;51.784;4.660;2024-03-06T13:03:20;16.82;51.24
83120;SHT31;73001;51.784;4.660;2024-03-06T13:05:45;16.93;52.17
83120;SHT31;73001;51.784;4.660;2024-03-06T13:08:11;17.15;50.76
83120;SHT31;73001;51.784;4.660;2024-03-06T13:10:40;17.31;50.38
83120;SHT31;73001;51.784;4.660;2024-03-06T13:13:05;17.33;49.69
83120;SHT31;73001;51.784;4.660;2024-03-06T13:15:32;17.16;50.68
83120;SHT31;73001;51.784;4.660;2024-03-06T13:17:59;16.78;51.00
83120;SHT31;73001;51.784;4.660;2024-03-06T13:20:32;16.41;52.14
83120;SHT31;73001;51.784;4.660;2024-03-06T13:22:58;16.22;53.24
83120;SHT31;73001;51.784;4.660;2024-03-06T13:25:24;16.08;53.54
83120;SHT31;73001;51.784;4.660;2024-03-06T13:27:50;16.14;53.16
83120;SHT31;73001;51.784;4.660;2024-03-06T13:30:20;16.15;53.60
83120;SHT31;73001;51.784;4.660;2024-03-06T13:32:45;16.18;53.07
83120;SHT31;73001;51.784;4.660;2024-03-06T13:35:14;16.15;53.39
83120;SHT31;73001;51.784;4.660;2024-03-06T13:37:43;16.20;53.01
83120;SHT31;73001;51.784;4.660;2024-03-06T13:40:09;16.20;52.94
83120;SHT31;73001;51.784;4.660;2024-03-06T13:42:36;16.06;53.36
83120;SHT31;73001;51.784;4.660;2024-03-06T13:45:03;15.96;53.61
83120;SHT31;73001;51.784;4.660;2024-03-06T13:47:30;15.97;52.90
83120;SHT31;73001;51.784;4.660;2024-03-06T13:49:55;15.87;53.40
83120;SHT31;73001;51.784;4.660;2024-03-06T13:52:21;15.73;53.85
83120;SHT31;73001;51.784;4.660;2024-03-06T13:54:48;15.63;53.72
83120;SHT31;73001;51.784;4.660;2024-03-06T13:57:15;15.67;53.56
83120;SHT31;73001;51.784;4.660;2024-03-06T13:59:41;15.71;53.83
83120;SHT31;73001;51.784;4.660;2024-03-06T14:02:07;15.70;53.62
83120;SHT31;73001;51.784;4.660;2024-03-06T14:04:33;15.67;52.59
83120;SHT31;73001;51.784;4.660;2024-03-06T14:06:59;15.56;52.95
83120;SHT31;73001;51.784;4.660;2024-03-06T14:09:25;15.65;52.48
83120;SHT31;73001;51.784;4.660;2024-03-06T14:11:54;15.79;51.81
83120;SHT31;73001;51.784;4.660;2024-03-06T14:14:20;15.91;52.27
83120;SHT31;73001;51.784;4.660;2024-03-06T14:16:46;16.03;50.53
83120;SHT31;73001;51.784;4.660;2024-03-06T14:19:12;16.14;50.23
83120;SHT31;73001;51.784;4.660;2024-03-06T14:21:40;16.06;50.13
83120;SHT31;73001;51.784;4.660;2024-03-06T14:24:06;16.15;50.33
83120;SHT31;73001;51.784;4.660;2024-03-06T14:26:33;16.24;51.14
83120;SHT31;73001;51.784;4.660;2024-03-06T14:28:59;16.29;50.45
83120;SHT31;73001;51.784;4.660;2024-03-06T14:31:25;16.34;49.98
83120;SHT31;73001;51.784;4.660;2024-03-06T14:33:51;16.40;49.92
83120;SHT31;73001;51.784;4.660;2024-03-06T14:36:17;16.31;49.07
83120;SHT31;73001;51.784;4.660;2024-03-06T14:38:45;16.14;50.62
83120;SHT31;73001;51.784;4.660;2024-03-06T14:41:11;16.10;50.65
83120;SHT31;73001;51.784;4.660;2024-03-06T14:43:37;15.93;51.13
83120;SHT31;73001;51.784;4.660;2024-03-06T14:46:05;15.89;50.93
83120;SHT31;73001;51.784;4.660;2024-03-06T14:48:32;15.90;50.86
83120;SHT31;73001;51.784;4.660;2024-03-06T14:51:02;15.79;50.48
83120;SHT31;73001;51.784;4.660;2024-03-06T14:53:27;15.67;51.73
83120;SHT31;73001;51.784;4.660;2024-03-06T14:55:53;15.57;50.59
83120;SHT31;73001;51.784;4.660;2024-03-06T14:58:19;15.35;52.47
83120;SHT31;73001;51.784;4.660;2024-03-06T15:00:44;15.22;52.69
83120;SHT31;73001;51.784;4.660;2024-03-06T15:03:10;15.21;53.33
83120;SHT31;73001;51.784;4.660;2024-03-06T15:05:35;15.22;53.51
83120;SHT31;73001;51.784;4.660;2024-03-06T15:08:01;15.28;54.19
83120;SHT31;73001;51.784;4.660;2024-03-06T15:10:29;15.25;54.73
83120;SHT31;73001;51.784;4.660;2024-03-06T15:12:57;15.22;54.16
83120;SHT31;73001;51.784;4.660;2024-03-06T15:15:22;15.18;54.55
83120;SHT31;73001;51.784;4.660;2024-03-06T15:17:48;15.14;55.93
83120;SHT31;73001;51.784;4.660;2024-03-06T15:20:13;15.15;55.83
83120;SHT31;73001;51.784;4.660;2024-03-06T15:22:39;15.15;55.70
83120;SHT31;73001;51.784;4.660;2024-03-06T15:25:08;15.15;55.16
83120;SHT31;73001;51.784;4.660;2024-03-06T15:27:35;15.22;55.36
83120;SHT31;73001;51.784;4.660;2024-03-06T15:30:02;15.24;55.55
83120;SHT31;73001;51.784;4.660;2024-03-06T15:32:28;15.21;56.20
83120;SHT31;73001;51.784;4.660;2024-03-06T15:34:53;15.15;55.73
83120;SHT31;73001;51.784;4.660;2024-03-06T15:37:22;15.01;56.55
83120;SHT31;73001;51.784;4.660;2024-03-06T15:39:51;14.84;57.08
83120;SHT31;73001;51.784;4.660;2024-03-06T15:42:17;14.80;57.21
83120;SHT31;73001;51.784;4.660;2024-03-06T15:44:42;14.77;57.10